<?xml version="1.0" encoding="UTF-8" standalone="no" ?>
<gpx xmlns="http://www.topografix.com/GPX/1/1" xmlns:xsi="http://www.w3.org/2001/XMLSchema-instance" xsi:schemaLocation="http://www.topografix.com/GPX/1/1 http://www.topografix.com/GPX/1/1/gpx.xsd" version="1.1" creator="VisuGPX - https://www.visugpx.com">
  <metadata>
    <name>Boucle antique de Paussac Saint-Juste</name>
  </metadata>
  <wpt lat="45.34732" lon="0.53898">
    <ele>148</ele>
    <name><![CDATA[le club d'escalade et le presbytère Saint-Michel.]]></name>
  </wpt>
  <wpt lat="45.34637" lon="0.53784">
    <ele>146</ele>
    <name><![CDATA[tour pigeonnier]]></name>
  </wpt>
  <wpt lat="45.34547" lon="0.53332">
    <ele>127</ele>
    <name><![CDATA[petit sentier balisé en jaune]]></name>
  </wpt>
  <wpt lat="45.34317" lon="0.52816">
    <ele>141</ele>
    <name><![CDATA[la pierre d’Ermale]]></name>
  </wpt>
  <wpt lat="45.34889" lon="0.51982">
    <ele>122</ele>
    <name><![CDATA[le cluseau aérien]]></name>
  </wpt>
  <wpt lat="45.3503" lon="0.51504">
    <ele>142</ele>
    <name><![CDATA[le village troglodytique]]></name>
  </wpt>
  <wpt lat="45.3525" lon="0.51205">
    <ele>148</ele>
    <name><![CDATA[suivre le balisage et dans le virage prendre le se]]></name>
  </wpt>
  <wpt lat="45.3443" lon="0.51151">
    <ele>148</ele>
    <name><![CDATA[prendre un petit sentier dirigé sud-ouest]]></name>
  </wpt>
  <wpt lat="45.34096" lon="0.51505">
    <ele>148</ele>
    <name><![CDATA[échappatoire pour raccourcir la rando]]></name>
  </wpt>
  <wpt lat="45.33058" lon="0.53062">
    <ele>141</ele>
    <name><![CDATA[le dolmen de Peyrelevade]]></name>
  </wpt>
  <trk>
    <name><![CDATA[Boucle antique de Paussac Saint-Juste]]></name>
    <trkseg>
      <trkpt lat="45.34824" lon="0.53929">
        <ele>151</ele>
        <time>2020-06-27T18:02:11+02:00</time>
      </trkpt>
      <trkpt lat="45.34806" lon="0.53956">
        <ele>150</ele>
        <time>2020-06-27T18:02:16+02:00</time>
      </trkpt>
      <trkpt lat="45.34783" lon="0.5394">
        <ele>150</ele>
        <time>2020-06-27T18:02:21+02:00</time>
      </trkpt>
      <trkpt lat="45.34765" lon="0.53925">
        <ele>149</ele>
        <time>2020-06-27T18:02:26+02:00</time>
      </trkpt>
      <trkpt lat="45.34732" lon="0.53898">
        <ele>148</ele>
        <time>2020-06-27T18:02:31+02:00</time>
      </trkpt>
      <trkpt lat="45.34714" lon="0.53884">
        <ele>148</ele>
        <time>2020-06-27T18:02:36+02:00</time>
      </trkpt>
      <trkpt lat="45.34704" lon="0.53875">
        <ele>148</ele>
        <time>2020-06-27T18:02:41+02:00</time>
      </trkpt>
      <trkpt lat="45.34703" lon="0.53862">
        <ele>147</ele>
        <time>2020-06-27T18:02:46+02:00</time>
      </trkpt>
      <trkpt lat="45.34695" lon="0.53849">
        <ele>147</ele>
        <time>2020-06-27T18:02:51+02:00</time>
      </trkpt>
      <trkpt lat="45.34686" lon="0.53844">
        <ele>147</ele>
        <time>2020-06-27T18:02:56+02:00</time>
      </trkpt>
      <trkpt lat="45.34675" lon="0.53824">
        <ele>147</ele>
        <time>2020-06-27T18:03:01+02:00</time>
      </trkpt>
      <trkpt lat="45.34662" lon="0.53805">
        <ele>147</ele>
        <time>2020-06-27T18:03:06+02:00</time>
      </trkpt>
      <trkpt lat="45.34648" lon="0.53794">
        <ele>146</ele>
        <time>2020-06-27T18:03:11+02:00</time>
      </trkpt>
      <trkpt lat="45.34637" lon="0.53784">
        <ele>146</ele>
        <time>2020-06-27T18:03:16+02:00</time>
      </trkpt>
      <trkpt lat="45.34629" lon="0.53763">
        <ele>145</ele>
        <time>2020-06-27T18:03:21+02:00</time>
      </trkpt>
      <trkpt lat="45.34621" lon="0.53738">
        <ele>144</ele>
        <time>2020-06-27T18:03:26+02:00</time>
      </trkpt>
      <trkpt lat="45.34612" lon="0.53708">
        <ele>143</ele>
        <time>2020-06-27T18:03:31+02:00</time>
      </trkpt>
      <trkpt lat="45.34602" lon="0.53675">
        <ele>141</ele>
        <time>2020-06-27T18:03:36+02:00</time>
      </trkpt>
      <trkpt lat="45.34588" lon="0.53613">
        <ele>139</ele>
        <time>2020-06-27T18:03:41+02:00</time>
      </trkpt>
      <trkpt lat="45.34584" lon="0.536">
        <ele>138</ele>
        <time>2020-06-27T18:03:46+02:00</time>
      </trkpt>
      <trkpt lat="45.34584" lon="0.53576">
        <ele>138</ele>
        <time>2020-06-27T18:03:51+02:00</time>
      </trkpt>
      <trkpt lat="45.34585" lon="0.53556">
        <ele>137</ele>
        <time>2020-06-27T18:03:56+02:00</time>
      </trkpt>
      <trkpt lat="45.34579" lon="0.53515">
        <ele>135</ele>
        <time>2020-06-27T18:04:01+02:00</time>
      </trkpt>
      <trkpt lat="45.34574" lon="0.53484">
        <ele>135</ele>
        <time>2020-06-27T18:04:06+02:00</time>
      </trkpt>
      <trkpt lat="45.34569" lon="0.53464">
        <ele>135</ele>
        <time>2020-06-27T18:04:11+02:00</time>
      </trkpt>
      <trkpt lat="45.34561" lon="0.53444">
        <ele>134</ele>
        <time>2020-06-27T18:04:16+02:00</time>
      </trkpt>
      <trkpt lat="45.34556" lon="0.53427">
        <ele>134</ele>
        <time>2020-06-27T18:04:21+02:00</time>
      </trkpt>
      <trkpt lat="45.34554" lon="0.5341">
        <ele>133</ele>
        <time>2020-06-27T18:04:26+02:00</time>
      </trkpt>
      <trkpt lat="45.34551" lon="0.53381">
        <ele>131</ele>
        <time>2020-06-27T18:04:31+02:00</time>
      </trkpt>
      <trkpt lat="45.34548" lon="0.5335">
        <ele>128</ele>
        <time>2020-06-27T18:04:36+02:00</time>
      </trkpt>
      <trkpt lat="45.34547" lon="0.53332">
        <ele>127</ele>
        <time>2020-06-27T18:04:41+02:00</time>
      </trkpt>
      <trkpt lat="45.34546" lon="0.5332">
        <ele>126</ele>
        <time>2020-06-27T18:04:46+02:00</time>
      </trkpt>
      <trkpt lat="45.34548" lon="0.53301">
        <ele>125</ele>
        <time>2020-06-27T18:04:51+02:00</time>
      </trkpt>
      <trkpt lat="45.34547" lon="0.53289">
        <ele>124</ele>
        <time>2020-06-27T18:04:56+02:00</time>
      </trkpt>
      <trkpt lat="45.34545" lon="0.53275">
        <ele>123</ele>
        <time>2020-06-27T18:05:01+02:00</time>
      </trkpt>
      <trkpt lat="45.34541" lon="0.53258">
        <ele>122</ele>
        <time>2020-06-27T18:05:06+02:00</time>
      </trkpt>
      <trkpt lat="45.34534" lon="0.53237">
        <ele>121</ele>
        <time>2020-06-27T18:05:11+02:00</time>
      </trkpt>
      <trkpt lat="45.34528" lon="0.53213">
        <ele>120</ele>
        <time>2020-06-27T18:05:16+02:00</time>
      </trkpt>
      <trkpt lat="45.34523" lon="0.53196">
        <ele>119</ele>
        <time>2020-06-27T18:05:21+02:00</time>
      </trkpt>
      <trkpt lat="45.34518" lon="0.53175">
        <ele>118</ele>
        <time>2020-06-27T18:05:26+02:00</time>
      </trkpt>
      <trkpt lat="45.34509" lon="0.5316">
        <ele>118</ele>
        <time>2020-06-27T18:05:31+02:00</time>
      </trkpt>
      <trkpt lat="45.34493" lon="0.53136">
        <ele>119</ele>
        <time>2020-06-27T18:05:36+02:00</time>
      </trkpt>
      <trkpt lat="45.34479" lon="0.53114">
        <ele>119</ele>
        <time>2020-06-27T18:05:41+02:00</time>
      </trkpt>
      <trkpt lat="45.3446" lon="0.53084">
        <ele>120</ele>
        <time>2020-06-27T18:05:46+02:00</time>
      </trkpt>
      <trkpt lat="45.3445" lon="0.53069">
        <ele>121</ele>
        <time>2020-06-27T18:05:51+02:00</time>
      </trkpt>
      <trkpt lat="45.34426" lon="0.53036">
        <ele>124</ele>
        <time>2020-06-27T18:05:56+02:00</time>
      </trkpt>
      <trkpt lat="45.34409" lon="0.53012">
        <ele>126</ele>
        <time>2020-06-27T18:06:01+02:00</time>
      </trkpt>
      <trkpt lat="45.344" lon="0.52991">
        <ele>129</ele>
        <time>2020-06-27T18:06:06+02:00</time>
      </trkpt>
      <trkpt lat="45.34393" lon="0.52968">
        <ele>131</ele>
        <time>2020-06-27T18:06:11+02:00</time>
      </trkpt>
      <trkpt lat="45.34386" lon="0.52935">
        <ele>134</ele>
        <time>2020-06-27T18:06:16+02:00</time>
      </trkpt>
      <trkpt lat="45.34369" lon="0.52849">
        <ele>141</ele>
        <time>2020-06-27T18:06:21+02:00</time>
      </trkpt>
      <trkpt lat="45.34349" lon="0.52839">
        <ele>142</ele>
        <time>2020-06-27T18:06:26+02:00</time>
      </trkpt>
      <trkpt lat="45.34326" lon="0.52823">
        <ele>142</ele>
        <time>2020-06-27T18:06:31+02:00</time>
      </trkpt>
      <trkpt lat="45.34317" lon="0.52816">
        <ele>141</ele>
        <time>2020-06-27T18:06:36+02:00</time>
      </trkpt>
      <trkpt lat="45.34309" lon="0.52806">
        <ele>140</ele>
        <time>2020-06-27T18:06:41+02:00</time>
      </trkpt>
      <trkpt lat="45.34311" lon="0.52772">
        <ele>140</ele>
        <time>2020-06-27T18:06:46+02:00</time>
      </trkpt>
      <trkpt lat="45.34304" lon="0.52745">
        <ele>138</ele>
        <time>2020-06-27T18:06:51+02:00</time>
      </trkpt>
      <trkpt lat="45.34295" lon="0.52706">
        <ele>134</ele>
        <time>2020-06-27T18:06:56+02:00</time>
      </trkpt>
      <trkpt lat="45.34325" lon="0.52636">
        <ele>133</ele>
        <time>2020-06-27T18:07:01+02:00</time>
      </trkpt>
      <trkpt lat="45.3434" lon="0.52589">
        <ele>131</ele>
        <time>2020-06-27T18:07:06+02:00</time>
      </trkpt>
      <trkpt lat="45.34345" lon="0.52555">
        <ele>128</ele>
        <time>2020-06-27T18:07:11+02:00</time>
      </trkpt>
      <trkpt lat="45.34349" lon="0.52548">
        <ele>128</ele>
        <time>2020-06-27T18:07:16+02:00</time>
      </trkpt>
      <trkpt lat="45.34349" lon="0.52506">
        <ele>124</ele>
        <time>2020-06-27T18:07:21+02:00</time>
      </trkpt>
      <trkpt lat="45.34361" lon="0.52475">
        <ele>125</ele>
        <time>2020-06-27T18:07:26+02:00</time>
      </trkpt>
      <trkpt lat="45.34363" lon="0.5245">
        <ele>124</ele>
        <time>2020-06-27T18:07:31+02:00</time>
      </trkpt>
      <trkpt lat="45.34351" lon="0.52413">
        <ele>121</ele>
        <time>2020-06-27T18:07:36+02:00</time>
      </trkpt>
      <trkpt lat="45.3435" lon="0.52386">
        <ele>120</ele>
        <time>2020-06-27T18:07:41+02:00</time>
      </trkpt>
      <trkpt lat="45.34353" lon="0.52364">
        <ele>119</ele>
        <time>2020-06-27T18:07:46+02:00</time>
      </trkpt>
      <trkpt lat="45.34361" lon="0.52354">
        <ele>120</ele>
        <time>2020-06-27T18:07:51+02:00</time>
      </trkpt>
      <trkpt lat="45.34383" lon="0.52297">
        <ele>121</ele>
        <time>2020-06-27T18:07:56+02:00</time>
      </trkpt>
      <trkpt lat="45.34401" lon="0.52256">
        <ele>119</ele>
        <time>2020-06-27T18:08:01+02:00</time>
      </trkpt>
      <trkpt lat="45.34436" lon="0.52216">
        <ele>118</ele>
        <time>2020-06-27T18:08:06+02:00</time>
      </trkpt>
      <trkpt lat="45.34478" lon="0.52179">
        <ele>118</ele>
        <time>2020-06-27T18:08:11+02:00</time>
      </trkpt>
      <trkpt lat="45.34534" lon="0.52132">
        <ele>119</ele>
        <time>2020-06-27T18:08:16+02:00</time>
      </trkpt>
      <trkpt lat="45.34562" lon="0.52108">
        <ele>119</ele>
        <time>2020-06-27T18:08:21+02:00</time>
      </trkpt>
      <trkpt lat="45.34599" lon="0.52088">
        <ele>118</ele>
        <time>2020-06-27T18:08:26+02:00</time>
      </trkpt>
      <trkpt lat="45.34671" lon="0.52088">
        <ele>120</ele>
        <time>2020-06-27T18:08:31+02:00</time>
      </trkpt>
      <trkpt lat="45.34738" lon="0.52071">
        <ele>118</ele>
        <time>2020-06-27T18:08:36+02:00</time>
      </trkpt>
      <trkpt lat="45.34797" lon="0.52084">
        <ele>117</ele>
        <time>2020-06-27T18:08:41+02:00</time>
      </trkpt>
      <trkpt lat="45.34845" lon="0.52121">
        <ele>122</ele>
        <time>2020-06-27T18:08:46+02:00</time>
      </trkpt>
      <trkpt lat="45.34886" lon="0.52142">
        <ele>123</ele>
        <time>2020-06-27T18:08:51+02:00</time>
      </trkpt>
      <trkpt lat="45.34921" lon="0.52142">
        <ele>121</ele>
        <time>2020-06-27T18:08:56+02:00</time>
      </trkpt>
      <trkpt lat="45.34944" lon="0.52154">
        <ele>122</ele>
        <time>2020-06-27T18:09:01+02:00</time>
      </trkpt>
      <trkpt lat="45.34962" lon="0.52186">
        <ele>123</ele>
        <time>2020-06-27T18:09:06+02:00</time>
      </trkpt>
      <trkpt lat="45.34988" lon="0.52217">
        <ele>123</ele>
        <time>2020-06-27T18:09:11+02:00</time>
      </trkpt>
      <trkpt lat="45.34981" lon="0.52171">
        <ele>121</ele>
        <time>2020-06-27T18:09:16+02:00</time>
      </trkpt>
      <trkpt lat="45.34975" lon="0.5212">
        <ele>124</ele>
        <time>2020-06-27T18:09:21+02:00</time>
      </trkpt>
      <trkpt lat="45.34957" lon="0.52083">
        <ele>124</ele>
        <time>2020-06-27T18:09:26+02:00</time>
      </trkpt>
      <trkpt lat="45.34918" lon="0.52028">
        <ele>124</ele>
        <time>2020-06-27T18:09:31+02:00</time>
      </trkpt>
      <trkpt lat="45.34889" lon="0.51982">
        <ele>122</ele>
        <time>2020-06-27T18:09:36+02:00</time>
      </trkpt>
      <trkpt lat="45.34875" lon="0.51938">
        <ele>121</ele>
        <time>2020-06-27T18:09:41+02:00</time>
      </trkpt>
      <trkpt lat="45.34876" lon="0.51904">
        <ele>123</ele>
        <time>2020-06-27T18:09:46+02:00</time>
      </trkpt>
      <trkpt lat="45.34906" lon="0.51843">
        <ele>128</ele>
        <time>2020-06-27T18:09:51+02:00</time>
      </trkpt>
      <trkpt lat="45.34931" lon="0.51776">
        <ele>131</ele>
        <time>2020-06-27T18:09:56+02:00</time>
      </trkpt>
      <trkpt lat="45.34953" lon="0.51735">
        <ele>133</ele>
        <time>2020-06-27T18:10:01+02:00</time>
      </trkpt>
      <trkpt lat="45.35008" lon="0.51676">
        <ele>137</ele>
        <time>2020-06-27T18:10:06+02:00</time>
      </trkpt>
      <trkpt lat="45.35018" lon="0.51649">
        <ele>138</ele>
        <time>2020-06-27T18:10:11+02:00</time>
      </trkpt>
      <trkpt lat="45.35024" lon="0.51589">
        <ele>140</ele>
        <time>2020-06-27T18:10:16+02:00</time>
      </trkpt>
      <trkpt lat="45.3503" lon="0.51504">
        <ele>142</ele>
        <time>2020-06-27T18:10:21+02:00</time>
      </trkpt>
      <trkpt lat="45.35039" lon="0.51478">
        <ele>143</ele>
        <time>2020-06-27T18:10:26+02:00</time>
      </trkpt>
      <trkpt lat="45.35069" lon="0.51451">
        <ele>145</ele>
        <time>2020-06-27T18:10:31+02:00</time>
      </trkpt>
      <trkpt lat="45.35136" lon="0.51401">
        <ele>150</ele>
        <time>2020-06-27T18:10:36+02:00</time>
      </trkpt>
      <trkpt lat="45.35192" lon="0.51364">
        <ele>152</ele>
        <time>2020-06-27T18:10:41+02:00</time>
      </trkpt>
      <trkpt lat="45.35223" lon="0.51325">
        <ele>152</ele>
        <time>2020-06-27T18:10:46+02:00</time>
      </trkpt>
      <trkpt lat="45.35243" lon="0.51277">
        <ele>151</ele>
        <time>2020-06-27T18:10:51+02:00</time>
      </trkpt>
      <trkpt lat="45.3525" lon="0.51205">
        <ele>148</ele>
        <time>2020-06-27T18:10:56+02:00</time>
      </trkpt>
      <trkpt lat="45.35184" lon="0.51196">
        <ele>150</ele>
        <time>2020-06-27T18:11:01+02:00</time>
      </trkpt>
      <trkpt lat="45.35162" lon="0.51193">
        <ele>150</ele>
        <time>2020-06-27T18:11:06+02:00</time>
      </trkpt>
      <trkpt lat="45.35137" lon="0.51199">
        <ele>151</ele>
        <time>2020-06-27T18:11:11+02:00</time>
      </trkpt>
      <trkpt lat="45.35097" lon="0.51198">
        <ele>153</ele>
        <time>2020-06-27T18:11:16+02:00</time>
      </trkpt>
      <trkpt lat="45.35068" lon="0.51195">
        <ele>154</ele>
        <time>2020-06-27T18:11:21+02:00</time>
      </trkpt>
      <trkpt lat="45.3502" lon="0.51181">
        <ele>156</ele>
        <time>2020-06-27T18:11:26+02:00</time>
      </trkpt>
      <trkpt lat="45.34987" lon="0.51174">
        <ele>158</ele>
        <time>2020-06-27T18:11:31+02:00</time>
      </trkpt>
      <trkpt lat="45.34965" lon="0.51153">
        <ele>159</ele>
        <time>2020-06-27T18:11:36+02:00</time>
      </trkpt>
      <trkpt lat="45.34947" lon="0.51132">
        <ele>160</ele>
        <time>2020-06-27T18:11:41+02:00</time>
      </trkpt>
      <trkpt lat="45.34925" lon="0.51125">
        <ele>162</ele>
        <time>2020-06-27T18:11:46+02:00</time>
      </trkpt>
      <trkpt lat="45.34886" lon="0.51139">
        <ele>163</ele>
        <time>2020-06-27T18:11:51+02:00</time>
      </trkpt>
      <trkpt lat="45.34812" lon="0.51191">
        <ele>162</ele>
        <time>2020-06-27T18:11:56+02:00</time>
      </trkpt>
      <trkpt lat="45.34736" lon="0.51239">
        <ele>158</ele>
        <time>2020-06-27T18:12:01+02:00</time>
      </trkpt>
      <trkpt lat="45.34674" lon="0.51279">
        <ele>154</ele>
        <time>2020-06-27T18:12:06+02:00</time>
      </trkpt>
      <trkpt lat="45.34635" lon="0.51296">
        <ele>151</ele>
        <time>2020-06-27T18:12:11+02:00</time>
      </trkpt>
      <trkpt lat="45.34582" lon="0.51262">
        <ele>153</ele>
        <time>2020-06-27T18:12:16+02:00</time>
      </trkpt>
      <trkpt lat="45.34537" lon="0.51236">
        <ele>153</ele>
        <time>2020-06-27T18:12:21+02:00</time>
      </trkpt>
      <trkpt lat="45.3449" lon="0.51211">
        <ele>151</ele>
        <time>2020-06-27T18:12:26+02:00</time>
      </trkpt>
      <trkpt lat="45.34462" lon="0.51176">
        <ele>150</ele>
        <time>2020-06-27T18:12:31+02:00</time>
      </trkpt>
      <trkpt lat="45.3443" lon="0.51151">
        <ele>148</ele>
        <time>2020-06-27T18:12:36+02:00</time>
      </trkpt>
      <trkpt lat="45.34391" lon="0.51232">
        <ele>148</ele>
        <time>2020-06-27T18:12:41+02:00</time>
      </trkpt>
      <trkpt lat="45.34332" lon="0.51342">
        <ele>148</ele>
        <time>2020-06-27T18:12:46+02:00</time>
      </trkpt>
      <trkpt lat="45.34261" lon="0.51414">
        <ele>150</ele>
        <time>2020-06-27T18:12:51+02:00</time>
      </trkpt>
      <trkpt lat="45.34096" lon="0.51505">
        <ele>148</ele>
        <time>2020-06-27T18:12:56+02:00</time>
      </trkpt>
      <trkpt lat="45.34022" lon="0.51382">
        <ele>139</ele>
        <time>2020-06-27T18:13:01+02:00</time>
      </trkpt>
      <trkpt lat="45.33972" lon="0.51301">
        <ele>133</ele>
        <time>2020-06-27T18:13:06+02:00</time>
      </trkpt>
      <trkpt lat="45.33933" lon="0.51245">
        <ele>129</ele>
        <time>2020-06-27T18:13:11+02:00</time>
      </trkpt>
      <trkpt lat="45.33914" lon="0.51163">
        <ele>126</ele>
        <time>2020-06-27T18:13:16+02:00</time>
      </trkpt>
      <trkpt lat="45.33898" lon="0.51118">
        <ele>128</ele>
        <time>2020-06-27T18:13:21+02:00</time>
      </trkpt>
      <trkpt lat="45.33882" lon="0.50996">
        <ele>132</ele>
        <time>2020-06-27T18:13:26+02:00</time>
      </trkpt>
      <trkpt lat="45.33849" lon="0.50893">
        <ele>133</ele>
        <time>2020-06-27T18:13:31+02:00</time>
      </trkpt>
      <trkpt lat="45.33746" lon="0.50923">
        <ele>132</ele>
        <time>2020-06-27T18:13:36+02:00</time>
      </trkpt>
      <trkpt lat="45.33625" lon="0.50955">
        <ele>130</ele>
        <time>2020-06-27T18:13:41+02:00</time>
      </trkpt>
      <trkpt lat="45.33588" lon="0.50977">
        <ele>129</ele>
        <time>2020-06-27T18:13:46+02:00</time>
      </trkpt>
      <trkpt lat="45.33527" lon="0.51093">
        <ele>130</ele>
        <time>2020-06-27T18:13:51+02:00</time>
      </trkpt>
      <trkpt lat="45.3349" lon="0.51241">
        <ele>128</ele>
        <time>2020-06-27T18:13:56+02:00</time>
      </trkpt>
      <trkpt lat="45.33458" lon="0.51367">
        <ele>127</ele>
        <time>2020-06-27T18:14:01+02:00</time>
      </trkpt>
      <trkpt lat="45.33411" lon="0.51479">
        <ele>127</ele>
        <time>2020-06-27T18:14:06+02:00</time>
      </trkpt>
      <trkpt lat="45.33366" lon="0.51541">
        <ele>127</ele>
        <time>2020-06-27T18:14:11+02:00</time>
      </trkpt>
      <trkpt lat="45.33342" lon="0.51666">
        <ele>120</ele>
        <time>2020-06-27T18:14:16+02:00</time>
      </trkpt>
      <trkpt lat="45.33336" lon="0.51775">
        <ele>113</ele>
        <time>2020-06-27T18:14:21+02:00</time>
      </trkpt>
      <trkpt lat="45.33318" lon="0.51899">
        <ele>106</ele>
        <time>2020-06-27T18:14:26+02:00</time>
      </trkpt>
      <trkpt lat="45.3331" lon="0.51942">
        <ele>104</ele>
        <time>2020-06-27T18:14:31+02:00</time>
      </trkpt>
      <trkpt lat="45.33324" lon="0.52005">
        <ele>102</ele>
        <time>2020-06-27T18:14:36+02:00</time>
      </trkpt>
      <trkpt lat="45.3334" lon="0.52056">
        <ele>102</ele>
        <time>2020-06-27T18:14:41+02:00</time>
      </trkpt>
      <trkpt lat="45.33336" lon="0.52095">
        <ele>101</ele>
        <time>2020-06-27T18:14:46+02:00</time>
      </trkpt>
      <trkpt lat="45.33301" lon="0.52185">
        <ele>99</ele>
        <time>2020-06-27T18:14:51+02:00</time>
      </trkpt>
      <trkpt lat="45.33289" lon="0.52234">
        <ele>101</ele>
        <time>2020-06-27T18:14:56+02:00</time>
      </trkpt>
      <trkpt lat="45.33277" lon="0.52277">
        <ele>105</ele>
        <time>2020-06-27T18:15:01+02:00</time>
      </trkpt>
      <trkpt lat="45.33277" lon="0.52369">
        <ele>114</ele>
        <time>2020-06-27T18:15:06+02:00</time>
      </trkpt>
      <trkpt lat="45.33285" lon="0.52436">
        <ele>120</ele>
        <time>2020-06-27T18:15:11+02:00</time>
      </trkpt>
      <trkpt lat="45.33274" lon="0.52481">
        <ele>123</ele>
        <time>2020-06-27T18:15:16+02:00</time>
      </trkpt>
      <trkpt lat="45.33245" lon="0.5253">
        <ele>127</ele>
        <time>2020-06-27T18:15:21+02:00</time>
      </trkpt>
      <trkpt lat="45.33227" lon="0.52575">
        <ele>131</ele>
        <time>2020-06-27T18:15:26+02:00</time>
      </trkpt>
      <trkpt lat="45.3322" lon="0.52635">
        <ele>132</ele>
        <time>2020-06-27T18:15:31+02:00</time>
      </trkpt>
      <trkpt lat="45.33212" lon="0.52668">
        <ele>132</ele>
        <time>2020-06-27T18:15:36+02:00</time>
      </trkpt>
      <trkpt lat="45.33193" lon="0.52685">
        <ele>134</ele>
        <time>2020-06-27T18:15:41+02:00</time>
      </trkpt>
      <trkpt lat="45.3317" lon="0.52687">
        <ele>134</ele>
        <time>2020-06-27T18:15:46+02:00</time>
      </trkpt>
      <trkpt lat="45.33114" lon="0.52803">
        <ele>139</ele>
        <time>2020-06-27T18:15:51+02:00</time>
      </trkpt>
      <trkpt lat="45.33099" lon="0.52897">
        <ele>141</ele>
        <time>2020-06-27T18:15:56+02:00</time>
      </trkpt>
      <trkpt lat="45.33087" lon="0.52977">
        <ele>140</ele>
        <time>2020-06-27T18:16:01+02:00</time>
      </trkpt>
      <trkpt lat="45.33058" lon="0.53062">
        <ele>141</ele>
        <time>2020-06-27T18:16:06+02:00</time>
      </trkpt>
      <trkpt lat="45.33034" lon="0.53155">
        <ele>141</ele>
        <time>2020-06-27T18:16:11+02:00</time>
      </trkpt>
      <trkpt lat="45.33131" lon="0.53311">
        <ele>137</ele>
        <time>2020-06-27T18:16:16+02:00</time>
      </trkpt>
      <trkpt lat="45.33224" lon="0.53423">
        <ele>137</ele>
        <time>2020-06-27T18:16:21+02:00</time>
      </trkpt>
      <trkpt lat="45.333" lon="0.53496">
        <ele>138</ele>
        <time>2020-06-27T18:16:26+02:00</time>
      </trkpt>
      <trkpt lat="45.33378" lon="0.53507">
        <ele>139</ele>
        <time>2020-06-27T18:16:31+02:00</time>
      </trkpt>
      <trkpt lat="45.33449" lon="0.53534">
        <ele>138</ele>
        <time>2020-06-27T18:16:36+02:00</time>
      </trkpt>
      <trkpt lat="45.33499" lon="0.53556">
        <ele>138</ele>
        <time>2020-06-27T18:16:41+02:00</time>
      </trkpt>
      <trkpt lat="45.33547" lon="0.53556">
        <ele>137</ele>
        <time>2020-06-27T18:16:46+02:00</time>
      </trkpt>
      <trkpt lat="45.33604" lon="0.53575">
        <ele>136</ele>
        <time>2020-06-27T18:16:51+02:00</time>
      </trkpt>
      <trkpt lat="45.33639" lon="0.53586">
        <ele>134</ele>
        <time>2020-06-27T18:16:56+02:00</time>
      </trkpt>
      <trkpt lat="45.33737" lon="0.53612">
        <ele>132</ele>
        <time>2020-06-27T18:17:01+02:00</time>
      </trkpt>
      <trkpt lat="45.33802" lon="0.53629">
        <ele>132</ele>
        <time>2020-06-27T18:17:06+02:00</time>
      </trkpt>
      <trkpt lat="45.33889" lon="0.5362">
        <ele>133</ele>
        <time>2020-06-27T18:17:11+02:00</time>
      </trkpt>
      <trkpt lat="45.33971" lon="0.53625">
        <ele>133</ele>
        <time>2020-06-27T18:17:16+02:00</time>
      </trkpt>
      <trkpt lat="45.3403" lon="0.53627">
        <ele>132</ele>
        <time>2020-06-27T18:17:21+02:00</time>
      </trkpt>
      <trkpt lat="45.34129" lon="0.53695">
        <ele>134</ele>
        <time>2020-06-27T18:17:26+02:00</time>
      </trkpt>
      <trkpt lat="45.34212" lon="0.53736">
        <ele>137</ele>
        <time>2020-06-27T18:17:31+02:00</time>
      </trkpt>
      <trkpt lat="45.34257" lon="0.53766">
        <ele>139</ele>
        <time>2020-06-27T18:17:36+02:00</time>
      </trkpt>
      <trkpt lat="45.34288" lon="0.53795">
        <ele>141</ele>
        <time>2020-06-27T18:17:41+02:00</time>
      </trkpt>
      <trkpt lat="45.34354" lon="0.53816">
        <ele>142</ele>
        <time>2020-06-27T18:17:46+02:00</time>
      </trkpt>
      <trkpt lat="45.34392" lon="0.53828">
        <ele>144</ele>
        <time>2020-06-27T18:17:51+02:00</time>
      </trkpt>
      <trkpt lat="45.34414" lon="0.53827">
        <ele>145</ele>
        <time>2020-06-27T18:17:56+02:00</time>
      </trkpt>
      <trkpt lat="45.34482" lon="0.53798">
        <ele>144</ele>
        <time>2020-06-27T18:18:01+02:00</time>
      </trkpt>
      <trkpt lat="45.34515" lon="0.53796">
        <ele>144</ele>
        <time>2020-06-27T18:18:06+02:00</time>
      </trkpt>
      <trkpt lat="45.34582" lon="0.53801">
        <ele>143</ele>
        <time>2020-06-27T18:18:11+02:00</time>
      </trkpt>
      <trkpt lat="45.34633" lon="0.53795">
        <ele>145</ele>
        <time>2020-06-27T18:18:16+02:00</time>
      </trkpt>
      <trkpt lat="45.34651" lon="0.538">
        <ele>146</ele>
        <time>2020-06-27T18:18:21+02:00</time>
      </trkpt>
      <trkpt lat="45.34665" lon="0.53814">
        <ele>147</ele>
        <time>2020-06-27T18:18:26+02:00</time>
      </trkpt>
      <trkpt lat="45.3468" lon="0.53843">
        <ele>147</ele>
        <time>2020-06-27T18:18:31+02:00</time>
      </trkpt>
      <trkpt lat="45.34698" lon="0.53871">
        <ele>148</ele>
        <time>2020-06-27T18:18:36+02:00</time>
      </trkpt>
      <trkpt lat="45.34711" lon="0.53889">
        <ele>148</ele>
        <time>2020-06-27T18:18:41+02:00</time>
      </trkpt>
      <trkpt lat="45.34743" lon="0.53915">
        <ele>149</ele>
        <time>2020-06-27T18:18:46+02:00</time>
      </trkpt>
      <trkpt lat="45.34784" lon="0.53947">
        <ele>150</ele>
        <time>2020-06-27T18:18:51+02:00</time>
      </trkpt>
      <trkpt lat="45.34809" lon="0.53966">
        <ele>150</ele>
        <time>2020-06-27T18:18:56+02:00</time>
      </trkpt>
      <trkpt lat="45.34827" lon="0.53937">
        <ele>151</ele>
        <time>2020-06-27T18:19:01+02:00</time>
      </trkpt>
    </trkseg>
  </trk>
</gpx>